Home > Products > Valid Products > TAF

000
FTUS43 KABR 260500
TAFATY
TAF
KATY 260531Z 2606/2706 11006KT 6SM -SN BR BKN035 OVC070
      TEMPO 2606/2609 2SM -SN OVC015
     FM260900 36015KT 3SM -SN BR OVC006
     FM261200 35018G29KT 6SM -SN OVC015
     FM261800 34014G25KT P6SM OVC025=



000
FTUS43 KABR 260500
TAFPIR
TAF
KPIR 260531Z 2606/2706 32019G27KT P6SM SCT026 OVC035
     FM261200 34016G25KT P6SM OVC015
     FM261500 34012KT P6SM OVC025
     FM261800 36006KT P6SM OVC050=



000
FTUS43 KABR 260500
TAFABR
TAF
KABR 260531Z 2606/2706 08007KT P6SM SCT007 OVC014
      TEMPO 2606/2609 2SM -SN BKN007
     FM260900 36021G30KT 6SM -SN BR OVC025
     FM261200 35015G25KT P6SM OVC025
     FM261800 36007KT P6SM BKN040=



000
FTUS43 KABR 260500
TAFMBG
TAF
KMBG 260531Z 2606/2706 33021G31KT P6SM BKN008 OVC014
     FM260900 35017G28KT P6SM OVC015
     FM261500 03005KT P6SM OVC025=



000
FTUS43 KABR 260500 AAB
TAFMBG
TAF AMD
KMBG 260509Z 2605/2624 33021G31KT P6SM BKN008 OVC014
     FM260900 35017G28KT P6SM OVC015
     FM261500 03005KT P6SM OVC025=



000
FTUS43 KABR 260500 AAB
TAFPIR
TAF AMD
KPIR 260508Z 2605/2624 31023G29KT P6SM OVC025
     FM261200 34016G25KT P6SM OVC015
     FM261500 34012KT P6SM OVC025
     FM261800 36006KT P6SM OVC050=



000
FTUS43 KABR 260500 AAC
TAFATY
TAF AMD
KATY 260506Z 2605/2624 12007KT 5SM -SN BR OVC027
      TEMPO 2606/2609 2SM -SN OVC015
     FM260900 36015KT 3SM -SN BR OVC006
     FM261200 35018G29KT 6SM -SN OVC015
     FM261800 34014G25KT P6SM OVC025=



000
FTUS43 KABR 260500 AAC
TAFABR
TAF AMD
KABR 260503Z 2605/2624 09008KT P6SM SCT007 OVC013
      TEMPO 2606/2609 2SM -SN BKN007
     FM260900 36021G30KT 6SM -SN BR OVC025
     FM261200 35015G25KT P6SM OVC025
     FM261800 36007KT P6SM BKN040=



000
FTUS43 KABR 260300 AAB
TAFABR
TAF AMD
KABR 260348Z 2604/2624 12009KT 6SM -SN BR BKN006 OVC010
      TEMPO 2604/2606 2SM -SN
     FM260600 36018G27KT 5SM -SN BLSN OVC015
     FM261200 36018G27KT 3SM -SN BLSN OVC020=



000
FTUS43 KABR 260300 AAB
TAFABR
TAF AMD
KABR 260348Z 2604/2624 12009KT 6SM -SN BR BKN006 OVC010
      TEMPO 2604/2606 2SM -SN
     FM260600 36018G27KT 5SM -SN BLSN OVC015
     FM261200 36018G27KT 3SM -SN BLSN OVC020=



000
FTUS43 KABR 260300 AAB
TAFATY
TAF AMD
KATY 260331Z 2604/2624 12005KT 3SM -SN FEW035 BKN050 OVC060
      TEMPO 2604/2606 1SM -SN OVC015
     FM260600 04012KT 3/4SM -SN BR OVC010
     FM261000 01019G27KT 3/4SM -SN BLSN OVC010
     FM261600 36019G27KT 2SM -SN BLSN OVC010=



000
FTUS43 KABR 260300 AAA
TAFATY
TAF AMD
KATY 260303Z 2603/2624 12005KT 6SM -SN FEW035 BKN050 OVC060
     FM260600 04012KT 3/4SM -SN BR OVC010
     FM261000 01019G27KT 3/4SM -SN BLSN OVC010
     FM261600 36019G27KT 2SM -SN BLSN OVC010=



000
FTUS43 KABR 260200 AAA
TAFABR
TAF AMD
KABR 260237Z 2603/2624 13007KT 2SM -SN BR BKN007 OVC015
      TEMPO 2603/2606 1SM -SN
     FM260600 36018G27KT 3SM -SN BLSN OVC015
     FM261200 36018G27KT 3SM -SN BLSN OVC020=



000
FTUS43 KABR 260200 AAA
TAFPIR
TAF AMD
KPIR 260237Z 2603/2624 29010KT P6SM OVC050
     FM261500 36014KT P6SM OVC020=



000
FTUS43 KABR 260000 AAA
TAFMBG
TAF AMD
KMBG 260022Z 2600/2624 VRB06KT P6SM FEW008 BKN022 OVC035
     FM260300 34022G30KT P6SM OVC015
     FM261200 35014KT P6SM OVC015
     FM261600 36010KT P6SM OVC020=



000
FTUS43 KABR 252300
TAFMBG
TAF
KMBG 252335Z 2600/2624 20006KT 6SM -SN BR OVC005
     FM260300 34022G30KT P6SM OVC015
     FM261200 35014KT P6SM OVC015
     FM261600 36010KT P6SM OVC020=



000
FTUS43 KABR 252300
TAFPIR
TAF
KPIR 252335Z 2600/2624 25005KT 6SM -SN BR FEW014 BKN023 OVC040
     FM260300 33026G35KT P6SM OVC015
     FM261500 36014KT P6SM OVC020=



000
FTUS43 KABR 252300
TAFABR
TAF
KABR 252335Z 2600/2624 13008KT 3SM -SN BR OVC035
      TEMPO 2600/2603 1/2SM SN OVC004
     FM260400 04012KT 3/4SM -SN BR OVC010
     FM260600 36018G27KT 3/4SM -SN BLSN OVC015
     FM261200 36018G27KT 3SM -SN BLSN OVC020=



000
FTUS43 KABR 252300
TAFATY
TAF
KATY 252335Z 2600/2624 14007KT P6SM SCT100
      TEMPO 2600/2603 3SM -SN OVC025
     FM260300 09008KT 1SM -SN BR OVC015
     FM260600 04012KT 3/4SM -SN BR OVC010
     FM261000 01019G27KT 3/4SM -SN BLSN OVC010
     FM261600 36019G27KT 2SM -SN BLSN OVC010=



000
FTUS43 KABR 252300 AAA
TAFMBG
TAF AMD
KMBG 252309Z 2523/2618 18008KT 3/4SM -SN BR BKN005 OVC009
     FM260000 33014KT 6SM -SN OVC010
     FM260400 34022G30KT P6SM OVC015
     FM261200 35014KT P6SM OVC015
     FM261600 36010KT P6SM OVC020=



000
FTUS43 KABR 252300 AAA
TAFATY
TAF AMD
KATY 252308Z 2523/2618 14007KT P6SM BKN050
      TEMPO 2600/2603 3SM -SN OVC025
     FM260300 09008KT 1SM -SN BR OVC015
     FM260600 04012KT 3/4SM -SN BR OVC010
     FM261000 01019G27KT 3/4SM -SN BLSN OVC010
     FM261600 36019G27KT 2SM -SN BLSN OVC010=



000
FTUS43 KABR 252300 AAA
TAFABR
TAF AMD
KABR 252307Z 2523/2618 13008KT 3SM -SN BR OVC035
     FM260000 10009KT 3SM -SN BR OVC015
      TEMPO 2600/2604 1/2SM SN OVC004
     FM260400 04012KT 3/4SM -SN BR OVC010
     FM260600 36018G27KT 3/4SM -SN BLSN OVC015
     FM261200 36018G27KT 3SM -SN BLSN OVC020=



000
FTUS43 KABR 251700
TAFABR
TAF
KABR 251734Z 2518/2618 16008KT P6SM BKN060 OVC120
      TEMPO 2521/2524 3SM -SN OVC030
     FM260000 10009KT 1SM -SN BR OVC015
     FM260300 04012KT 3/4SM -SN BR OVC010
     FM260600 36018G27KT 3/4SM -SN BLSN OVC015
     FM261200 36018G27KT 3SM -SN BLSN OVC020=



000
FTUS43 KABR 251700
TAFATY
TAF
KATY 251734Z 2518/2618 17009KT P6SM OVC030
      TEMPO 2600/2603 3SM -SN OVC025
     FM260300 09008KT 1SM -SN BR OVC015
     FM260600 04012KT 3/4SM -SN BR OVC010
     FM261000 01019G27KT 3/4SM -SN BLSN OVC010
     FM261600 36019G27KT 2SM -SN BLSN OVC010=



000
FTUS43 KABR 251700
TAFPIR
TAF
KPIR 251734Z 2518/2618 15008KT P6SM OVC070
      TEMPO 2521/2524 -RA OVC040
     FM260000 31015KT 4SM -RASN OVC030
     FM260400 33026G35KT P6SM OVC015
     FM261500 36014KT P6SM OVC020=



000
FTUS43 KABR 251700
TAFMBG
TAF
KMBG 251734Z 2518/2618 16010KT 3SM -SN OVC040
      TEMPO 2519/2521 1SM -SN BR OVC020
     FM252100 19008KT 3/4SM -SN BR OVC015
     FM260000 33014KT 2SM -SN OVC010
     FM260400 34022G30KT P6SM OVC015
     FM261200 35014KT P6SM OVC015
     FM261600 36010KT P6SM OVC020=



000
FTUS43 KABR 251600 AAA
TAFMBG
TAF AMD
KMBG 251631Z 2517/2612 14008KT P6SM OVC060
      TEMPO 2519/2521 4SM -SN OVC020
     FM252100 31011KT 2SM -SN BR OVC015
     FM260300 34017G25KT 4SM -SN BLSN OVC015
     FM260600 34022G30KT P6SM OVC015=



000
FTUS43 KABR 251600 AAA
TAFATY
TAF AMD
KATY 251628Z 2516/2612 18007KT P6SM OVC030
      TEMPO 2601/2604 3SM -SN OVC025
     FM260400 12008KT 1SM -SN OVC015
     FM260900 01016G25KT 1SM -SN BLSN OVC010=



000
FTUS43 KABR 251600 AAB
TAFABR
TAF AMD
KABR 251627Z 2516/2612 17008KT P6SM OVC030
      TEMPO 2521/2524 3SM -SN OVC025
     FM260000 16009KT 2SM -SN BR OVC015
     FM260300 09010KT 3/4SM -SN BR OVC010
     FM260600 36018G27KT 1SM -SN BLSN OVC015=



000
FTUS43 KABR 251300 AAA
TAFABR
TAF AMD
KABR 251347Z 2514/2612 VRB05KT P6SM OVC030
     FM251500 17007KT P6SM OVC250
      TEMPO 2523/2601 3SM -SN OVC025
     FM260100 16009KT 2SM -SN OVC015
     FM260500 36016G25KT 1SM -SN BLSN OVC010
     FM261100 35018G27KT 4SM -SN BLSN OVC015=



000
FTUS43 KABR 251100
TAFATY
TAF
KATY 251129Z 2512/2612 VRB05KT P6SM OVC070
     FM251800 15008KT P6SM OVC100
      TEMPO 2601/2604 3SM -SN OVC025
     FM260400 12008KT 1SM -SN OVC015
     FM260900 01016G25KT 1SM -SN BLSN OVC010=



000
FTUS43 KABR 251100
TAFMBG
TAF
KMBG 251129Z 2512/2612 VRB05KT P6SM OVC250
     FM251400 16007KT P6SM OVC050
      TEMPO 2521/2523 4SM -SN OVC025
     FM252300 31011KT 2SM -SN BR OVC015
     FM260300 34017G25KT 4SM -SN BLSN OVC015
     FM260600 34022G30KT P6SM OVC015=



000
FTUS43 KABR 251100
TAFABR
TAF
KABR 251129Z 2512/2612 VRB05KT P6SM OVC040
     FM251600 17007KT P6SM OVC100
      TEMPO 2523/2601 3SM -SN OVC025
     FM260100 16009KT 2SM -SN OVC015
     FM260500 36016G25KT 1SM -SN BLSN OVC010
     FM261100 35018G27KT 4SM -SN BLSN OVC015=



000
FTUS43 KABR 251100
TAFPIR
TAF
KPIR 251129Z 2512/2612 24006KT P6SM OVC250
     FM251500 18008KT P6SM OVC100
      TEMPO 2521/2524 -RA OVC040
     FM260000 31016G25KT P6SM OVC040
     FM260400 33025G33KT P6SM OVC015=



000
FTUS43 KABR 250700 AAA
TAFMBG
TAF AMD
KMBG 250715Z 2507/2606 VRB03KT P6SM OVC025
     FM250900 VRB05KT P6SM BKN035
     FM251400 15007KT P6SM OVC020
      TEMPO 2518/2521 2SM -SN BR
     FM252100 19008KT 2SM -SN BR OVC020
     FM260300 34024G34KT 3SM BLSN OVC025=



000
FTUS43 KABR 250500
TAFATY
TAF
KATY 250536Z 2506/2606 30006KT P6SM SKC
     FM250900 26007KT P6SM BKN050 OVC090
     FM251400 VRB06KT P6SM OVC030
     FM251900 15008KT P6SM OVC015
      TEMPO 2600/2603 2SM -SN BR
     FM260300 12008KT 1SM -SN BR OVC015=



000
FTUS43 KABR 250500
TAFMBG
TAF
KMBG 250536Z 2506/2606 VRB06KT P6SM BKN070 OVC110
     FM250800 VRB06KT P6SM OVC035
     FM251400 15007KT P6SM OVC020
      TEMPO 2518/2521 2SM -SN BR
     FM252100 19008KT 2SM -SN BR OVC020
     FM260300 34024G34KT 3SM BLSN OVC025=



000
FTUS43 KABR 250500
TAFPIR
TAF
KPIR 250536Z 2506/2606 29009KT P6SM OVC060
     FM251000 25006KT P6SM BKN025 BKN060
     FM251500 16008KT P6SM SCT030 SCT120
     FM252100 15010KT P6SM BKN025 OVC040
      TEMPO 2521/2524 -RA
     FM260100 31025G35KT P6SM OVC030=



000
FTUS43 KABR 250500
TAFABR
TAF
KABR 250536Z 2506/2606 VRB06KT P6SM BKN060 OVC090
     FM251000 VRB06KT P6SM OVC040
     FM251500 17006KT P6SM OVC025
      TEMPO 2522/2524 2SM -SN
     FM260000 VRB06KT 1SM -SN BR OVC020=



000
FTUS43 KABR 250400 AAC
TAFMBG
TAF AMD
KMBG 250444Z 2505/2524 VRB06KT P6SM BKN070 OVC110
     FM250800 VRB06KT P6SM OVC035
     FM251400 14006KT P6SM OVC020
      TEMPO 2518/2521 2SM -SN BR
     FM252100 19008KT 2SM -SN BR OVC020=



000
FTUS43 KABR 250400 AAA
TAFPIR
TAF AMD
KPIR 250439Z 2505/2524 30009KT P6SM OVC060
     FM251000 26006KT P6SM BKN025 BKN060
     FM251500 16008KT P6SM SCT030 SCT120
     FM252100 15010KT P6SM BKN025 OVC040
      TEMPO 2521/2524 -RA=



000
FTUS43 KABR 250400 AAB
TAFMBG
TAF AMD
KMBG 250428Z 2504/2524 VRB06KT P6SM BKN070 OVC110
     FM250800 VRB06KT P6SM OVC035
     FM251400 14006KT P6SM OVC020
      TEMPO 2521/2524 2SM -SN BR=



000
FTUS43 KABR 250000 AAA
TAFABR
TAF AMD
KABR 250049Z 2501/2524 32011KT P6SM SCT250
     FM250500 VRB06KT P6SM BKN050 BKN100
     FM250900 VRB06KT P6SM OVC040
     FM251500 17006KT P6SM OVC030
      TEMPO 2522/2524 2SM -SN=



000
FTUS43 KABR 250000 AAA
TAFMBG
TAF AMD
KMBG 250047Z 2501/2524 33006KT P6SM SCT250
     FM250300 31006KT P6SM BKN070 OVC110
     FM251000 VRB06KT P6SM OVC050
     FM251800 14006KT P6SM OVC030
      TEMPO 2521/2524 2SM -SN BR=



000
FTUS43 KABR 242300
TAFATY
TAF
KATY 242340Z 2500/2524 32011KT P6SM FEW250
     FM250900 26007KT P6SM BKN150
     FM251500 18005KT P6SM OVC030=



000
FTUS43 KABR 242300
TAFPIR
TAF
KPIR 242340Z 2500/2524 33009KT P6SM SCT250
     FM250600 26006KT P6SM BKN200
     FM251600 19005KT P6SM BKN040=



000
FTUS43 KABR 242300
TAFMBG
TAF
KMBG 242340Z 2500/2524 32010KT P6SM SKC
     FM251200 17006KT P6SM OVC040=



000
FTUS43 KABR 242300
TAFABR
TAF
KABR 242340Z 2500/2524 32011KT P6SM SCT250
     FM250500 VRB06KT P6SM BKN050 BKN100
     FM251200 18005KT P6SM OVC040=



000
FTUS43 KABR 242000 AAA
TAFATY
TAF AMD
KATY 242006Z 2420/2518 33020G28KT P6SM -SHSN BKN020
      TEMPO 2420/2422 4SM -SHSN SCT020
     FM242200 33017G25KT P6SM SCT025
     FM250300 29007KT P6SM BKN150
     FM251200 20005KT P6SM OVC030=



000
FTUS43 KABR 241700
TAFABR
TAF
KABR 241739Z 2418/2518 33019G27KT P6SM SKC
     FM250100 25005KT P6SM BKN100
     FM251200 18005KT P6SM OVC040=



000
FTUS43 KABR 241700
TAFMBG
TAF
KMBG 241739Z 2418/2518 33018G24KT P6SM FEW200
     FM250000 31007KT P6SM BKN120
     FM251200 17006KT P6SM OVC040=



000
FTUS43 KABR 241700
TAFPIR
TAF
KPIR 241739Z 2418/2518 32016G22KT P6SM FEW200
     FM250000 30008KT P6SM BKN200
     FM251200 19005KT P6SM BKN040=



000
FTUS43 KABR 241700
TAFATY
TAF
KATY 241739Z 2418/2518 33024G31KT P6SM -SN OVC015
      TEMPO 2418/2420 4SM -SN BKN020
     FM242000 33020G28KT P6SM SCT025
     FM250300 29007KT P6SM BKN150
     FM251200 20005KT P6SM OVC030=



000
FTUS43 KABR 241500 AAA
TAFATY
TAF AMD
KATY 241525Z 2415/2512 34021G28KT P6SM -SN OVC015
      TEMPO 2415/2417 4SM -SN
     FM241800 33019G28KT P6SM SCT250
     FM250300 31008KT P6SM BKN150
     FM251000 VRB05KT P6SM OVC040=



000
FTUS43 KABR 241400 AAA
TAFPIR
TAF AMD
KPIR 241439Z 2415/2512 33017G24KT P6SM SCT015
     FM241800 32016G25KT P6SM SCT250
     FM250100 32008KT P6SM BKN250=



000
FTUS43 KABR 241400 AAB
TAFMBG
TAF AMD
KMBG 241438Z 2415/2512 33017G23KT P6SM SCT015
     FM241800 33014G25KT P6SM SCT250
     FM250000 VRB05KT P6SM BKN250=



000
FTUS43 KABR 241400 AAA
TAFABR
TAF AMD
KABR 241436Z 2415/2512 33019G27KT P6SM SKC
     FM250100 VRB05KT P6SM BKN100
     FM251000 VRB03KT P6SM OVC040=



000
FTUS43 KABR 241200 AAA
TAFMBG
TAF AMD
KMBG 241214Z 2412/2512 33014KT P6SM SCT015
     FM241400 33014G25KT P6SM SCT250
     FM250000 VRB05KT P6SM BKN250=



000
FTUS43 KABR 241200 AAA
TAFABR
TAF AMD
KABR 241213Z 2412/2512 33019G26KT P6SM OVC018
     FM241600 34018G28KT P6SM SCT250
     FM250100 VRB05KT P6SM BKN100
     FM251000 VRB03KT P6SM OVC040=



000
FTUS43 KABR 241100
TAFATY
TAF
KATY 241125Z 2412/2512 34016G25KT P6SM -SN OVC015
      TEMPO 2412/2415 4SM -SN
     FM241800 33019G28KT P6SM SCT250
     FM250300 31008KT P6SM BKN150
     FM251000 VRB05KT P6SM OVC040=



000
FTUS43 KABR 241100
TAFABR
TAF
KABR 241125Z 2412/2512 34017KT P6SM OVC020
     FM241600 34018G28KT P6SM SCT250
     FM250100 VRB05KT P6SM BKN100
     FM251000 VRB03KT P6SM OVC040=



000
FTUS43 KABR 241100
TAFPIR
TAF
KPIR 241125Z 2412/2512 33015KT P6SM SCT015
     FM241400 32016G25KT P6SM SCT250
     FM250100 32008KT P6SM BKN250=



000
FTUS43 KABR 241100
TAFMBG
TAF
KMBG 241125Z 2412/2512 33015G25KT P6SM OVC015
     FM241400 33014G25KT P6SM SCT250
     FM250000 VRB05KT P6SM BKN250=



000
FTUS43 KABR 240700 AAA
TAFPIR
TAF AMD
KPIR 240712Z 2407/2506 34016G28KT P6SM OVC025
     FM241000 32021G30KT P6SM SCT030
     FM242300 32010KT P6SM SKC=



000
FTUS43 KABR 240700 AAA
TAFATY
TAF AMD
KATY 240712Z 2407/2506 33019G27KT P6SM OVC025
     FM241000 34023G31KT P6SM OVC025
     FM242000 33019G28KT P6SM SCT030
     FM250200 32011KT P6SM FEW250=



000
FTUS43 KABR 240500
TAFPIR
TAF
KPIR 240520Z 2406/2506 33019G27KT P6SM BKN026
      TEMPO 2406/2410 SCT026
     FM241000 32021G30KT P6SM SCT030
     FM242300 32010KT P6SM SKC=



000
FTUS43 KABR 240500
TAFATY
TAF
KATY 240520Z 2406/2506 31019G29KT P6SM OVC016
     FM241000 34023G31KT P6SM OVC025
     FM242000 33019G28KT P6SM SCT030
     FM250200 32011KT P6SM FEW250=



000
FTUS43 KABR 240500
TAFMBG
TAF
KMBG 240520Z 2406/2506 33020G29KT P6SM OVC022
     FM241000 33018G27KT P6SM SCT030
     FM242200 32009KT P6SM SKC=



000
FTUS43 KABR 240500
TAFABR
TAF
KABR 240520Z 2406/2506 34017G26KT P6SM OVC025
     FM241600 34018G28KT P6SM SCT030
     FM242300 31010KT P6SM SCT250=



000
FTUS43 KABR 240400 AAA
TAFABR
TAF AMD
KABR 240453Z 2405/2424 34017G26KT P6SM OVC025
     FM241200 34020G30KT P6SM OVC025
     FM241600 34018G28KT P6SM SCT050=



000
FTUS43 KABR 240100 AAA
TAFATY
TAF AMD
KATY 240121Z 2401/2424 32022G30KT P6SM OVC016
     FM241000 34025G34KT P6SM OVC040
     FM241900 34020G30KT P6SM SCT050=



000
FTUS43 KABR 232300
TAFMBG
TAF
KMBG 232333Z 2400/2424 32022G31KT P6SM OVC030
     FM241000 33020G30KT P6SM SCT040
     FM241800 33015G23KT P6SM FEW050=



000
FTUS43 KABR 232300
TAFABR
TAF
KABR 232333Z 2400/2424 31023G28KT P6SM OVC026
     FM240600 34020G30KT P6SM OVC040
     FM241600 34018G28KT P6SM SCT050=



000
FTUS43 KABR 232300
TAFPIR
TAF
KPIR 232333Z 2400/2424 32019G27KT P6SM OVC040
     FM241000 32023G31KT P6SM SCT050
     FM241300 32023G31KT P6SM FEW050=



000
FTUS43 KABR 232300
TAFATY
TAF
KATY 232333Z 2400/2424 31019G29KT P6SM BKN026 OVC030
     FM241000 34025G34KT P6SM OVC040
     FM241900 34020G30KT P6SM SCT050=



000
FTUS43 KABR 232300 AAA
TAFMBG
TAF AMD
KMBG 232301Z 2323/2418 32024G31KT P6SM OVC028
     FM240200 33019KT P6SM OVC040
     FM241200 33017KT P6SM BKN040
     FM241500 33018KT P6SM FEW050=



000
FTUS43 KABR 232200 AAB
TAFABR
TAF AMD
KABR 232207Z 2322/2418 31021G29KT P6SM BKN027 OVC035
     FM240500 34020G30KT P6SM OVC050
     FM241300 34018G28KT P6SM SCT050=



000
FTUS43 KABR 232200 AAB
TAFABR
TAF AMD
KABR 232207Z 2322/2418 31021G29KT P6SM BKN027 OVC035
     FM240500 34020G30KT P6SM OVC050
     FM241300 34018G28KT P6SM SCT050=



000
FTUS43 KABR 232100 AAA
TAFABR
TAF AMD
KABR 232141Z 2322/2418 31017G27KT P6SM OVC030
     FM232200 31018G26KT P6SM OVC050
     FM240500 34020G30KT P6SM OVC050
     FM241300 34018G28KT P6SM SCT050=



000
FTUS43 KABR 232100 AAA
TAFATY
TAF AMD
KATY 232140Z 2322/2418 31017G27KT P6SM OVC025
     FM240300 30020G30KT P6SM OVC050
     FM241100 33025G35KT P6SM BKN050=



000
FTUS43 KABR 231900 AAA
TAFABR
TAF AMD
KABR 231932Z 2320/2418 31014G23KT P6SM OVC040
     FM232200 31018G26KT P6SM OVC050
     FM240500 34020G30KT P6SM OVC050
     FM241300 34018G28KT P6SM SCT050=



000
FTUS43 KABR 231700
TAFMBG
TAF
KMBG 231720Z 2318/2418 32018G28KT P6SM OVC035
     FM240200 33019KT P6SM OVC040
     FM241200 33017KT P6SM BKN040
     FM241500 33018KT P6SM FEW050=



000
FTUS43 KABR 231700
TAFABR
TAF
KABR 231720Z 2318/2418 28010KT P6SM OVC040
     FM232000 30017KT P6SM OVC040
     FM232200 31018G26KT P6SM OVC050
     FM240500 34020G30KT P6SM OVC050
     FM241300 34018G28KT P6SM SCT050=



000
FTUS43 KABR 231700
TAFPIR
TAF
KPIR 231720Z 2318/2418 29018G28KT P6SM BKN040
     FM232100 31025G35KT P6SM OVC040
     FM241000 32018G25KT P6SM BKN050
     FM241300 32018KT P6SM FEW050=



000
FTUS43 KABR 231700
TAFATY
TAF
KATY 231720Z 2318/2418 29012KT P6SM OVC080
     FM232000 30015KT P6SM OVC040
     FM240300 30020G30KT P6SM OVC050
     FM241100 33025G35KT P6SM BKN050=



000
FTUS43 KABR 231400 AAA
TAFMBG
TAF AMD
KMBG 231447Z 2315/2412 31008KT P6SM OVC040
     FM231600 31019G27KT P6SM OVC035
     FM231800 32026G35KT P6SM OVC035
     FM240300 33017KT P6SM OVC025=



000
FTUS43 KABR 231400 AAA
TAFPIR
TAF AMD
KPIR 231446Z 2315/2412 30013KT P6SM OVC150
     FM231700 31017G27KT P6SM OVC050
     FM231900 32025G35KT P6SM OVC035
     FM240300 32019KT P6SM OVC025=



000
FTUS43 KABR 231100
TAFMBG
TAF
KMBG 231122Z 2312/2412 29008KT P6SM OVC110
     FM231500 31019G27KT P6SM OVC035
     FM231800 32026G35KT P6SM OVC035
     FM240300 33017KT P6SM OVC025=



000
FTUS43 KABR 231100
TAFATY
TAF
KATY 231122Z 2312/2412 33010KT P6SM OVC070
     FM231900 30015G24KT P6SM OVC070
     FM240100 33020G28KT P6SM OVC015=



000
FTUS43 KABR 231100
TAFPIR
TAF
KPIR 231122Z 2312/2412 28008KT P6SM OVC080
     FM231400 31017G27KT P6SM OVC050
     FM231800 32025G35KT P6SM OVC035
     FM240300 32019KT P6SM OVC025=



000
FTUS43 KABR 231100
TAFABR
TAF
KABR 231122Z 2312/2412 30015KT P6SM OVC050
      TEMPO 2312/2314 -RA
     FM231800 31020G30KT P6SM OVC110
     FM240000 33024G34KT P6SM OVC025
     FM240300 34018KT P6SM OVC025=



000
FTUS43 KABR 231100 AAA
TAFABR
TAF AMD
KABR 231104Z 2311/2406 29018KT P6SM OVC050
      TEMPO 2312/2314 4SM -RA
     FM231600 30017G26KT P6SM SCT090 BKN150
     FM240100 33024G31KT P6SM OVC025=



    US Dept of Commerce
    National Oceanic and Atmospheric Administration
    National Weather Service
    1325 East West Highway
    Silver Spring, MD 20910
    Page Author: NWS Internet Services Team
Disclaimer
Information Quality
Credits
Glossary
Privacy Policy
Freedom of Information Act (FOIA)
About Us
Career Opportunities